sensor_id;sensor_type;location;lat;lon;timestamp;P1;durP1;ratioP1;P2;durP2;ratioP2
64868;SDS011;51349;52.424;10.840;2023-02-18T00:03:42;4.77;;;1.73;;
64868;SDS011;51349;52.424;10.840;2023-02-18T00:08:44;4.63;;;1.50;;
64868;SDS011;51349;52.424;10.840;2023-02-18T00:13:52;4.53;;;1.70;;
64868;SDS011;51349;52.424;10.840;2023-02-18T00:18:56;4.00;;;1.60;;
64868;SDS011;51349;52.424;10.840;2023-02-18T00:23:58;4.83;;;1.70;;
64868;SDS011;51349;52.424;10.840;2023-02-18T00:28:59;7.53;;;1.73;;
64868;SDS011;51349;52.424;10.840;2023-02-18T00:34:00;3.77;;;1.30;;
64868;SDS011;51349;52.424;10.840;2023-02-18T00:39:03;4.80;;;1.60;;
64868;SDS011;51349;52.424;10.840;2023-02-18T00:44:05;4.27;;;1.77;;
64868;SDS011;51349;52.424;10.840;2023-02-18T00:49:06;4.80;;;1.33;;
64868;SDS011;51349;52.424;10.840;2023-02-18T00:54:07;6.30;;;1.60;;
64868;SDS011;51349;52.424;10.840;2023-02-18T00:59:08;6.67;;;1.97;;
64868;SDS011;51349;52.424;10.840;2023-02-18T01:04:08;7.03;;;1.70;;
64868;SDS011;51349;52.424;10.840;2023-02-18T01:09:09;4.27;;;1.47;;
64868;SDS011;51349;52.424;10.840;2023-02-18T01:14:10;4.47;;;1.67;;
64868;SDS011;51349;52.424;10.840;2023-02-18T01:19:10;4.03;;;1.23;;
64868;SDS011;51349;52.424;10.840;2023-02-18T01:24:11;2.93;;;1.30;;
64868;SDS011;51349;52.424;10.840;2023-02-18T01:29:14;4.67;;;1.33;;
64868;SDS011;51349;52.424;10.840;2023-02-18T01:34:15;6.17;;;1.40;;
64868;SDS011;51349;52.424;10.840;2023-02-18T01:39:16;4.63;;;1.83;;
64868;SDS011;51349;52.424;10.840;2023-02-18T01:44:18;2.67;;;1.07;;
64868;SDS011;51349;52.424;10.840;2023-02-18T01:49:28;5.43;;;1.50;;
64868;SDS011;51349;52.424;10.840;2023-02-18T01:54:34;4.67;;;1.40;;
64868;SDS011;51349;52.424;10.840;2023-02-18T01:59:40;3.23;;;1.40;;
64868;SDS011;51349;52.424;10.840;2023-02-18T02:04:44;3.57;;;1.60;;
64868;SDS011;51349;52.424;10.840;2023-02-18T02:09:45;4.87;;;1.30;;
64868;SDS011;51349;52.424;10.840;2023-02-18T02:52:37;5.60;;;1.53;;
64868;SDS011;51349;52.424;10.840;2023-02-18T02:57:44;5.10;;;1.77;;
64868;SDS011;51349;52.424;10.840;2023-02-18T03:24:22;5.63;;;1.57;;
64868;SDS011;51349;52.424;10.840;2023-02-18T03:29:29;5.80;;;1.40;;
64868;SDS011;51349;52.424;10.840;2023-02-18T03:34:31;3.87;;;1.60;;
64868;SDS011;51349;52.424;10.840;2023-02-18T03:39:36;7.50;;;1.50;;
64868;SDS011;51349;52.424;10.840;2023-02-18T03:44:39;3.10;;;1.50;;
64868;SDS011;51349;52.424;10.840;2023-02-18T03:49:40;5.23;;;1.53;;
64868;SDS011;51349;52.424;10.840;2023-02-18T03:54:41;4.13;;;1.30;;
64868;SDS011;51349;52.424;10.840;2023-02-18T03:59:44;5.20;;;1.30;;
64868;SDS011;51349;52.424;10.840;2023-02-18T04:04:45;4.70;;;1.40;;
64868;SDS011;51349;52.424;10.840;2023-02-18T04:09:46;3.47;;;1.53;;
64868;SDS011;51349;52.424;10.840;2023-02-18T04:14:46;6.93;;;1.67;;
64868;SDS011;51349;52.424;10.840;2023-02-18T04:19:47;3.57;;;1.30;;
64868;SDS011;51349;52.424;10.840;2023-02-18T04:24:48;7.10;;;1.30;;
64868;SDS011;51349;52.424;10.840;2023-02-18T04:29:48;3.60;;;1.53;;
64868;SDS011;51349;52.424;10.840;2023-02-18T04:34:49;3.47;;;1.40;;
64868;SDS011;51349;52.424;10.840;2023-02-18T04:39:50;4.73;;;1.43;;
64868;SDS011;51349;52.424;10.840;2023-02-18T04:44:50;5.00;;;1.60;;
64868;SDS011;51349;52.424;10.840;2023-02-18T04:49:51;3.00;;;1.50;;
64868;SDS011;51349;52.424;10.840;2023-02-18T04:54:52;2.37;;;1.17;;
64868;SDS011;51349;52.424;10.840;2023-02-18T04:59:52;5.33;;;1.60;;
64868;SDS011;51349;52.424;10.840;2023-02-18T05:04:53;4.00;;;1.17;;
64868;SDS011;51349;52.424;10.840;2023-02-18T05:09:54;6.60;;;1.27;;
64868;SDS011;51349;52.424;10.840;2023-02-18T05:14:54;3.00;;;1.20;;
64868;SDS011;51349;52.424;10.840;2023-02-18T05:19:55;5.17;;;1.23;;
64868;SDS011;51349;52.424;10.840;2023-02-18T05:24:55;5.23;;;1.30;;
64868;SDS011;51349;52.424;10.840;2023-02-18T05:29:56;4.23;;;1.20;;
64868;SDS011;51349;52.424;10.840;2023-02-18T05:34:57;3.00;;;1.43;;
64868;SDS011;51349;52.424;10.840;2023-02-18T05:39:57;6.57;;;2.03;;
64868;SDS011;51349;52.424;10.840;2023-02-18T05:44:58;2.57;;;1.20;;
64868;SDS011;51349;52.424;10.840;2023-02-18T05:49:58;5.03;;;1.87;;
64868;SDS011;51349;52.424;10.840;2023-02-18T05:54:59;6.20;;;2.33;;
64868;SDS011;51349;52.424;10.840;2023-02-18T06:00:00;8.87;;;2.00;;
64868;SDS011;51349;52.424;10.840;2023-02-18T06:05:01;8.23;;;2.10;;
64868;SDS011;51349;52.424;10.840;2023-02-18T06:10:02;5.93;;;2.47;;
64868;SDS011;51349;52.424;10.840;2023-02-18T06:15:04;5.73;;;2.50;;
64868;SDS011;51349;52.424;10.840;2023-02-18T06:20:05;7.13;;;3.07;;
64868;SDS011;51349;52.424;10.840;2023-02-18T06:25:06;4.63;;;3.07;;
64868;SDS011;51349;52.424;10.840;2023-02-18T06:30:07;6.47;;;2.67;;
64868;SDS011;51349;52.424;10.840;2023-02-18T06:35:08;10.67;;;2.97;;
64868;SDS011;51349;52.424;10.840;2023-02-18T06:40:09;10.03;;;2.93;;
64868;SDS011;51349;52.424;10.840;2023-02-18T06:45:10;10.30;;;3.80;;
64868;SDS011;51349;52.424;10.840;2023-02-18T06:50:10;7.23;;;3.33;;
64868;SDS011;51349;52.424;10.840;2023-02-18T06:55:11;7.70;;;4.67;;
64868;SDS011;51349;52.424;10.840;2023-02-18T07:00:12;8.73;;;4.83;;
64868;SDS011;51349;52.424;10.840;2023-02-18T07:05:13;7.97;;;4.63;;
64868;SDS011;51349;52.424;10.840;2023-02-18T07:10:13;9.90;;;5.20;;
64868;SDS011;51349;52.424;10.840;2023-02-18T07:15:14;7.43;;;4.80;;
64868;SDS011;51349;52.424;10.840;2023-02-18T07:20:15;9.83;;;4.73;;
64868;SDS011;51349;52.424;10.840;2023-02-18T07:25:16;5.90;;;4.47;;
64868;SDS011;51349;52.424;10.840;2023-02-18T07:30:17;6.17;;;4.33;;
64868;SDS011;51349;52.424;10.840;2023-02-18T07:35:19;8.93;;;4.37;;
64868;SDS011;51349;52.424;10.840;2023-02-18T07:40:20;6.53;;;4.33;;
64868;SDS011;51349;52.424;10.840;2023-02-18T07:45:21;7.27;;;5.00;;
64868;SDS011;51349;52.424;10.840;2023-02-18T07:50:22;5.47;;;4.60;;
64868;SDS011;51349;52.424;10.840;2023-02-18T07:55:22;7.20;;;4.90;;
64868;SDS011;51349;52.424;10.840;2023-02-18T08:00:46;7.27;;;5.30;;
64868;SDS011;51349;52.424;10.840;2023-02-18T08:05:48;9.83;;;5.37;;
64868;SDS011;51349;52.424;10.840;2023-02-18T08:10:50;8.57;;;5.87;;
64868;SDS011;51349;52.424;10.840;2023-02-18T08:15:53;5.60;;;4.90;;
64868;SDS011;51349;52.424;10.840;2023-02-18T08:20:54;8.23;;;5.53;;
64868;SDS011;51349;52.424;10.840;2023-02-18T08:25:55;8.73;;;6.20;;
64868;SDS011;51349;52.424;10.840;2023-02-18T08:30:56;9.67;;;6.33;;
64868;SDS011;51349;52.424;10.840;2023-02-18T08:35:57;6.97;;;5.97;;
64868;SDS011;51349;52.424;10.840;2023-02-18T08:41:01;9.40;;;6.90;;
64868;SDS011;51349;52.424;10.840;2023-02-18T08:46:03;9.33;;;7.33;;
64868;SDS011;51349;52.424;10.840;2023-02-18T08:51:14;7.87;;;6.07;;
64868;SDS011;51349;52.424;10.840;2023-02-18T08:56:17;8.03;;;6.60;;
64868;SDS011;51349;52.424;10.840;2023-02-18T09:01:18;6.63;;;5.87;;
64868;SDS011;51349;52.424;10.840;2023-02-18T09:06:19;7.17;;;6.40;;
64868;SDS011;51349;52.424;10.840;2023-02-18T09:11:20;8.27;;;7.17;;
64868;SDS011;51349;52.424;10.840;2023-02-18T09:16:21;8.33;;;7.03;;
64868;SDS011;51349;52.424;10.840;2023-02-18T09:21:22;9.93;;;7.90;;
64868;SDS011;51349;52.424;10.840;2023-02-18T09:26:23;12.13;;;9.17;;
64868;SDS011;51349;52.424;10.840;2023-02-18T09:31:25;11.60;;;8.87;;
64868;SDS011;51349;52.424;10.840;2023-02-18T09:36:27;10.87;;;7.67;;
64868;SDS011;51349;52.424;10.840;2023-02-18T09:41:32;7.90;;;5.57;;
64868;SDS011;51349;52.424;10.840;2023-02-18T09:52:17;5.37;;;3.37;;
64868;SDS011;51349;52.424;10.840;2023-02-18T10:02:23;4.17;;;2.57;;
64868;SDS011;51349;52.424;10.840;2023-02-18T10:07:31;1.60;;;1.50;;
64868;SDS011;51349;52.424;10.840;2023-02-18T10:12:32;2.07;;;1.70;;
64868;SDS011;51349;52.424;10.840;2023-02-18T10:17:34;1.80;;;1.70;;
64868;SDS011;51349;52.424;10.840;2023-02-18T10:22:37;2.07;;;1.97;;
64868;SDS011;51349;52.424;10.840;2023-02-18T10:27:38;1.80;;;1.70;;
64868;SDS011;51349;52.424;10.840;2023-02-18T10:32:42;2.90;;;2.70;;
64868;SDS011;51349;52.424;10.840;2023-02-18T10:43:37;1.50;;;1.40;;
64868;SDS011;51349;52.424;10.840;2023-02-18T10:53:54;2.50;;;2.37;;
64868;SDS011;51349;52.424;10.840;2023-02-18T10:58:59;1.93;;;1.57;;
64868;SDS011;51349;52.424;10.840;2023-02-18T11:04:19;1.77;;;1.67;;
64868;SDS011;51349;52.424;10.840;2023-02-18T11:09:27;2.07;;;1.50;;
64868;SDS011;51349;52.424;10.840;2023-02-18T11:14:44;1.63;;;1.53;;
64868;SDS011;51349;52.424;10.840;2023-02-18T11:19:51;1.80;;;1.70;;
64868;SDS011;51349;52.424;10.840;2023-02-18T11:25:01;2.40;;;2.20;;
64868;SDS011;51349;52.424;10.840;2023-02-18T11:30:05;1.80;;;1.70;;
64868;SDS011;51349;52.424;10.840;2023-02-18T11:35:23;2.03;;;1.93;;
64868;SDS011;51349;52.424;10.840;2023-02-18T11:45:32;1.77;;;1.67;;
64868;SDS011;51349;52.424;10.840;2023-02-18T11:50:34;2.10;;;2.00;;
64868;SDS011;51349;52.424;10.840;2023-02-18T11:55:35;2.40;;;2.20;;
64868;SDS011;51349;52.424;10.840;2023-02-18T12:00:43;2.27;;;2.17;;
64868;SDS011;51349;52.424;10.840;2023-02-18T12:05:50;2.30;;;2.20;;
64868;SDS011;51349;52.424;10.840;2023-02-18T12:11:02;2.00;;;1.90;;
64868;SDS011;51349;52.424;10.840;2023-02-18T12:21:29;2.30;;;2.20;;
64868;SDS011;51349;52.424;10.840;2023-02-18T12:26:53;2.30;;;2.20;;
64868;SDS011;51349;52.424;10.840;2023-02-18T12:54:05;2.40;;;2.30;;
64868;SDS011;51349;52.424;10.840;2023-02-18T13:09:46;1.70;;;1.60;;
64868;SDS011;51349;52.424;10.840;2023-02-18T13:14:52;1.10;;;1.10;;
64868;SDS011;51349;52.424;10.840;2023-02-18T13:20:00;1.37;;;1.37;;
64868;SDS011;51349;52.424;10.840;2023-02-18T13:25:10;1.40;;;1.33;;
64868;SDS011;51349;52.424;10.840;2023-02-18T13:41:37;1.30;;;1.27;;
64868;SDS011;51349;52.424;10.840;2023-02-18T13:46:52;1.80;;;1.70;;
64868;SDS011;51349;52.424;10.840;2023-02-18T13:51:55;1.83;;;1.73;;
64868;SDS011;51349;52.424;10.840;2023-02-18T13:56:59;1.70;;;1.60;;
64868;SDS011;51349;52.424;10.840;2023-02-18T14:07:26;2.13;;;1.93;;
64868;SDS011;51349;52.424;10.840;2023-02-18T14:12:36;2.00;;;1.90;;
64868;SDS011;51349;52.424;10.840;2023-02-18T14:17:40;2.60;;;2.40;;
64868;SDS011;51349;52.424;10.840;2023-02-18T14:22:47;3.00;;;2.80;;
64868;SDS011;51349;52.424;10.840;2023-02-18T14:27:51;3.90;;;3.27;;
64868;SDS011;51349;52.424;10.840;2023-02-18T14:32:57;2.73;;;2.53;;
64868;SDS011;51349;52.424;10.840;2023-02-18T14:54:25;2.67;;;2.47;;
64868;SDS011;51349;52.424;10.840;2023-02-18T14:59:50;2.50;;;2.30;;
64868;SDS011;51349;52.424;10.840;2023-02-18T15:05:12;3.37;;;3.00;;
64868;SDS011;51349;52.424;10.840;2023-02-18T15:10:18;2.90;;;2.70;;
64868;SDS011;51349;52.424;10.840;2023-02-18T15:15:19;2.97;;;2.77;;
64868;SDS011;51349;52.424;10.840;2023-02-18T15:20:20;2.83;;;2.60;;
64868;SDS011;51349;52.424;10.840;2023-02-18T15:25:22;3.47;;;3.07;;
64868;SDS011;51349;52.424;10.840;2023-02-18T15:30:25;2.50;;;2.30;;
64868;SDS011;51349;52.424;10.840;2023-02-18T15:35:29;3.20;;;2.95;;
64868;SDS011;51349;52.424;10.840;2023-02-18T15:40:33;2.80;;;2.60;;
64868;SDS011;51349;52.424;10.840;2023-02-18T15:45:40;4.27;;;2.90;;
64868;SDS011;51349;52.424;10.840;2023-02-18T15:50:46;3.00;;;2.67;;
64868;SDS011;51349;52.424;10.840;2023-02-18T15:55:51;7.23;;;5.50;;
64868;SDS011;51349;52.424;10.840;2023-02-18T16:00:57;6.17;;;5.57;;
64868;SDS011;51349;52.424;10.840;2023-02-18T16:06:10;6.63;;;4.60;;
64868;SDS011;51349;52.424;10.840;2023-02-18T16:11:11;6.57;;;3.87;;
64868;SDS011;51349;52.424;10.840;2023-02-18T16:16:22;5.97;;;5.33;;
64868;SDS011;51349;52.424;10.840;2023-02-18T16:21:32;3.67;;;2.90;;
64868;SDS011;51349;52.424;10.840;2023-02-18T16:31:39;4.67;;;3.50;;
64868;SDS011;51349;52.424;10.840;2023-02-18T16:36:40;7.00;;;4.00;;
64868;SDS011;51349;52.424;10.840;2023-02-18T16:42:00;4.50;;;2.97;;
64868;SDS011;51349;52.424;10.840;2023-02-18T16:47:01;4.70;;;3.50;;
64868;SDS011;51349;52.424;10.840;2023-02-18T16:52:06;3.27;;;2.97;;
64868;SDS011;51349;52.424;10.840;2023-02-18T16:57:08;3.10;;;2.20;;
64868;SDS011;51349;52.424;10.840;2023-02-18T17:02:14;5.00;;;3.43;;
64868;SDS011;51349;52.424;10.840;2023-02-18T17:07:21;4.17;;;3.77;;
64868;SDS011;51349;52.424;10.840;2023-02-18T17:12:21;6.37;;;3.73;;
64868;SDS011;51349;52.424;10.840;2023-02-18T17:17:23;3.80;;;2.87;;
64868;SDS011;51349;52.424;10.840;2023-02-18T17:22:26;5.70;;;3.20;;
64868;SDS011;51349;52.424;10.840;2023-02-18T17:27:27;5.00;;;3.17;;
64868;SDS011;51349;52.424;10.840;2023-02-18T17:32:28;3.13;;;2.73;;
64868;SDS011;51349;52.424;10.840;2023-02-18T17:37:28;11.17;;;8.03;;
64868;SDS011;51349;52.424;10.840;2023-02-18T17:42:29;4.13;;;3.10;;
64868;SDS011;51349;52.424;10.840;2023-02-18T17:47:34;5.00;;;3.53;;
64868;SDS011;51349;52.424;10.840;2023-02-18T17:52:35;3.23;;;2.70;;
64868;SDS011;51349;52.424;10.840;2023-02-18T17:57:35;3.03;;;2.23;;
64868;SDS011;51349;52.424;10.840;2023-02-18T18:02:36;3.27;;;2.50;;
64868;SDS011;51349;52.424;10.840;2023-02-18T18:07:36;4.90;;;3.63;;
64868;SDS011;51349;52.424;10.840;2023-02-18T18:12:37;5.68;;;4.30;;
64868;SDS011;51349;52.424;10.840;2023-02-18T18:17:38;6.93;;;4.27;;
64868;SDS011;51349;52.424;10.840;2023-02-18T18:22:39;4.78;;;3.85;;
64868;SDS011;51349;52.424;10.840;2023-02-18T18:27:42;8.33;;;4.40;;
64868;SDS011;51349;52.424;10.840;2023-02-18T18:32:43;3.53;;;3.23;;
64868;SDS011;51349;52.424;10.840;2023-02-18T18:37:44;6.27;;;3.47;;
64868;SDS011;51349;52.424;10.840;2023-02-18T18:42:44;3.30;;;2.80;;
64868;SDS011;51349;52.424;10.840;2023-02-18T18:47:45;4.60;;;3.43;;
64868;SDS011;51349;52.424;10.840;2023-02-18T18:52:47;4.10;;;3.70;;
64868;SDS011;51349;52.424;10.840;2023-02-18T18:57:49;7.33;;;3.80;;
64868;SDS011;51349;52.424;10.840;2023-02-18T19:02:51;4.40;;;3.67;;
64868;SDS011;51349;52.424;10.840;2023-02-18T19:07:52;6.13;;;3.40;;
64868;SDS011;51349;52.424;10.840;2023-02-18T19:12:53;3.77;;;2.40;;
64868;SDS011;51349;52.424;10.840;2023-02-18T19:17:55;4.47;;;2.77;;
64868;SDS011;51349;52.424;10.840;2023-02-18T19:22:55;6.35;;;3.20;;
64868;SDS011;51349;52.424;10.840;2023-02-18T19:27:56;3.97;;;3.07;;
64868;SDS011;51349;52.424;10.840;2023-02-18T19:32:58;4.40;;;3.10;;
64868;SDS011;51349;52.424;10.840;2023-02-18T19:38:00;4.87;;;2.93;;
64868;SDS011;51349;52.424;10.840;2023-02-18T19:43:01;6.23;;;2.80;;
64868;SDS011;51349;52.424;10.840;2023-02-18T19:48:01;2.23;;;2.10;;
64868;SDS011;51349;52.424;10.840;2023-02-18T19:53:02;7.97;;;3.17;;
64868;SDS011;51349;52.424;10.840;2023-02-18T19:58:03;3.90;;;2.90;;
64868;SDS011;51349;52.424;10.840;2023-02-18T20:03:04;3.17;;;2.10;;
64868;SDS011;51349;52.424;10.840;2023-02-18T20:08:05;4.33;;;2.50;;
64868;SDS011;51349;52.424;10.840;2023-02-18T20:13:05;2.53;;;2.27;;
64868;SDS011;51349;52.424;10.840;2023-02-18T20:18:10;6.30;;;2.37;;
64868;SDS011;51349;52.424;10.840;2023-02-18T20:23:10;5.07;;;2.40;;
64868;SDS011;51349;52.424;10.840;2023-02-18T20:28:11;11.23;;;2.20;;
64868;SDS011;51349;52.424;10.840;2023-02-18T20:33:13;4.80;;;2.17;;
64868;SDS011;51349;52.424;10.840;2023-02-18T20:38:14;3.30;;;2.30;;
64868;SDS011;51349;52.424;10.840;2023-02-18T20:43:15;3.93;;;2.73;;
64868;SDS011;51349;52.424;10.840;2023-02-18T20:48:16;2.67;;;2.47;;
64868;SDS011;51349;52.424;10.840;2023-02-18T20:53:17;2.87;;;2.40;;
64868;SDS011;51349;52.424;10.840;2023-02-18T20:58:17;2.10;;;1.90;;
64868;SDS011;51349;52.424;10.840;2023-02-18T21:03:18;2.00;;;1.80;;
64868;SDS011;51349;52.424;10.840;2023-02-18T21:08:19;2.33;;;1.90;;
64868;SDS011;51349;52.424;10.840;2023-02-18T21:13:23;3.83;;;2.07;;
64868;SDS011;51349;52.424;10.840;2023-02-18T21:18:24;4.10;;;2.70;;
64868;SDS011;51349;52.424;10.840;2023-02-18T21:23:25;2.33;;;2.10;;
64868;SDS011;51349;52.424;10.840;2023-02-18T21:28:26;2.80;;;2.30;;
64868;SDS011;51349;52.424;10.840;2023-02-18T21:33:26;2.70;;;2.50;;
64868;SDS011;51349;52.424;10.840;2023-02-18T21:38:27;2.40;;;2.20;;
64868;SDS011;51349;52.424;10.840;2023-02-18T21:43:28;4.03;;;1.90;;
64868;SDS011;51349;52.424;10.840;2023-02-18T21:48:28;2.23;;;2.13;;
64868;SDS011;51349;52.424;10.840;2023-02-18T21:53:48;3.27;;;2.10;;
64868;SDS011;51349;52.424;10.840;2023-02-18T21:58:48;3.03;;;2.13;;
64868;SDS011;51349;52.424;10.840;2023-02-18T22:03:49;2.00;;;1.80;;
64868;SDS011;51349;52.424;10.840;2023-02-18T22:08:49;2.03;;;1.93;;
64868;SDS011;51349;52.424;10.840;2023-02-18T22:13:50;2.50;;;2.30;;
64868;SDS011;51349;52.424;10.840;2023-02-18T22:18:51;3.87;;;2.37;;
64868;SDS011;51349;52.424;10.840;2023-02-18T22:23:52;2.40;;;2.20;;
64868;SDS011;51349;52.424;10.840;2023-02-18T22:28:53;3.10;;;2.10;;
64868;SDS011;51349;52.424;10.840;2023-02-18T22:33:56;2.33;;;1.80;;
64868;SDS011;51349;52.424;10.840;2023-02-18T22:38:58;2.33;;;1.63;;
64868;SDS011;51349;52.424;10.840;2023-02-18T22:44:03;2.37;;;1.50;;
64868;SDS011;51349;52.424;10.840;2023-02-18T22:49:05;3.57;;;1.83;;
64868;SDS011;51349;52.424;10.840;2023-02-18T22:54:09;2.03;;;1.90;;
64868;SDS011;51349;52.424;10.840;2023-02-18T22:59:15;1.97;;;1.80;;
64868;SDS011;51349;52.424;10.840;2023-02-18T23:04:17;1.97;;;1.80;;
64868;SDS011;51349;52.424;10.840;2023-02-18T23:09:20;1.87;;;1.77;;
64868;SDS011;51349;52.424;10.840;2023-02-18T23:14:23;2.47;;;2.27;;
64868;SDS011;51349;52.424;10.840;2023-02-18T23:19:25;3.10;;;2.80;;
64868;SDS011;51349;52.424;10.840;2023-02-18T23:24:27;2.40;;;2.17;;
64868;SDS011;51349;52.424;10.840;2023-02-18T23:29:30;3.03;;;2.60;;
64868;SDS011;51349;52.424;10.840;2023-02-18T23:34:31;2.50;;;2.30;;
64868;SDS011;51349;52.424;10.840;2023-02-18T23:39:32;2.07;;;1.77;;
64868;SDS011;51349;52.424;10.840;2023-02-18T23:44:32;1.70;;;1.60;;
64868;SDS011;51349;52.424;10.840;2023-02-18T23:49:36;1.53;;;1.43;;
64868;SDS011;51349;52.424;10.840;2023-02-18T23:54:36;2.50;;;1.77;;
64868;SDS011;51349;52.424;10.840;2023-02-18T23:59:37;1.50;;;1.40;;
